sensor_id;sensor_type;location;lat;lon;timestamp;P1;durP1;ratioP1;P2;durP2;ratioP2
39486;SDS011;25173;50.430;18.926;2022-10-16T00:01:41;15.93;;;12.07;;
39486;SDS011;25173;50.430;18.926;2022-10-16T00:04:42;18.52;;;11.45;;
39486;SDS011;25173;50.430;18.926;2022-10-16T00:07:43;14.05;;;10.63;;
39486;SDS011;25173;50.430;18.926;2022-10-16T00:10:43;15.95;;;11.88;;
39486;SDS011;25173;50.430;18.926;2022-10-16T00:13:44;17.50;;;10.60;;
39486;SDS011;25173;50.430;18.926;2022-10-16T00:16:46;16.75;;;10.90;;
39486;SDS011;25173;50.430;18.926;2022-10-16T00:19:46;17.05;;;11.80;;
39486;SDS011;25173;50.430;18.926;2022-10-16T00:22:47;14.23;;;11.32;;
39486;SDS011;25173;50.430;18.926;2022-10-16T00:26:01;18.33;;;11.70;;
39486;SDS011;25173;50.430;18.926;2022-10-16T00:29:04;15.77;;;11.93;;
39486;SDS011;25173;50.430;18.926;2022-10-16T00:32:06;16.30;;;11.60;;
39486;SDS011;25173;50.430;18.926;2022-10-16T00:35:06;18.80;;;11.38;;
39486;SDS011;25173;50.430;18.926;2022-10-16T00:38:07;16.25;;;11.18;;
39486;SDS011;25173;50.430;18.926;2022-10-16T00:41:09;17.25;;;10.57;;
39486;SDS011;25173;50.430;18.926;2022-10-16T00:47:46;12.80;;;9.68;;
39486;SDS011;25173;50.430;18.926;2022-10-16T00:50:51;19.87;;;11.00;;
39486;SDS011;25173;50.430;18.926;2022-10-16T00:53:53;15.38;;;11.48;;
39486;SDS011;25173;50.430;18.926;2022-10-16T00:56:56;15.00;;;11.10;;
39486;SDS011;25173;50.430;18.926;2022-10-16T00:59:58;14.40;;;10.40;;
39486;SDS011;25173;50.430;18.926;2022-10-16T01:02:59;14.40;;;10.73;;
39486;SDS011;25173;50.430;18.926;2022-10-16T01:12:38;16.58;;;10.82;;
39486;SDS011;25173;50.430;18.926;2022-10-16T01:19:01;16.30;;;11.80;;
39486;SDS011;25173;50.430;18.926;2022-10-16T01:22:09;14.30;;;10.65;;
39486;SDS011;25173;50.430;18.926;2022-10-16T01:25:12;16.52;;;12.80;;
39486;SDS011;25173;50.430;18.926;2022-10-16T01:28:22;17.58;;;11.85;;
39486;SDS011;25173;50.430;18.926;2022-10-16T01:31:29;16.73;;;12.20;;
39486;SDS011;25173;50.430;18.926;2022-10-16T01:34:33;19.20;;;12.38;;
39486;SDS011;25173;50.430;18.926;2022-10-16T01:41:00;24.52;;;17.17;;
39486;SDS011;25173;50.430;18.926;2022-10-16T01:44:29;21.88;;;17.58;;
39486;SDS011;25173;50.430;18.926;2022-10-16T01:47:33;24.88;;;17.98;;
39486;SDS011;25173;50.430;18.926;2022-10-16T01:50:37;23.20;;;16.70;;
39486;SDS011;25173;50.430;18.926;2022-10-16T01:53:43;23.45;;;16.40;;
39486;SDS011;25173;50.430;18.926;2022-10-16T01:56:48;22.40;;;16.48;;
39486;SDS011;25173;50.430;18.926;2022-10-16T01:59:52;23.40;;;16.15;;
39486;SDS011;25173;50.430;18.926;2022-10-16T02:02:56;21.55;;;14.77;;
39486;SDS011;25173;50.430;18.926;2022-10-16T02:06:01;24.55;;;15.25;;
39486;SDS011;25173;50.430;18.926;2022-10-16T02:09:02;25.35;;;15.35;;
39486;SDS011;25173;50.430;18.926;2022-10-16T02:12:06;21.60;;;13.90;;
39486;SDS011;25173;50.430;18.926;2022-10-16T02:15:12;18.98;;;13.90;;
39486;SDS011;25173;50.430;18.926;2022-10-16T02:18:12;20.35;;;14.73;;
39486;SDS011;25173;50.430;18.926;2022-10-16T02:21:19;23.75;;;14.50;;
39486;SDS011;25173;50.430;18.926;2022-10-16T02:24:31;18.92;;;14.43;;
39486;SDS011;25173;50.430;18.926;2022-10-16T02:27:41;22.25;;;15.48;;
39486;SDS011;25173;50.430;18.926;2022-10-16T02:30:55;19.92;;;15.30;;
39486;SDS011;25173;50.430;18.926;2022-10-16T02:34:00;17.80;;;14.13;;
39486;SDS011;25173;50.430;18.926;2022-10-16T02:37:03;18.95;;;14.52;;
39486;SDS011;25173;50.430;18.926;2022-10-16T02:40:05;18.95;;;13.68;;
39486;SDS011;25173;50.430;18.926;2022-10-16T02:43:07;20.13;;;14.80;;
39486;SDS011;25173;50.430;18.926;2022-10-16T02:46:09;21.02;;;14.85;;
39486;SDS011;25173;50.430;18.926;2022-10-16T02:49:10;18.20;;;14.15;;
39486;SDS011;25173;50.430;18.926;2022-10-16T02:52:10;20.58;;;14.07;;
39486;SDS011;25173;50.430;18.926;2022-10-16T02:55:11;24.27;;;14.50;;
39486;SDS011;25173;50.430;18.926;2022-10-16T02:58:12;24.20;;;15.93;;
39486;SDS011;25173;50.430;18.926;2022-10-16T03:01:12;21.15;;;15.15;;
39486;SDS011;25173;50.430;18.926;2022-10-16T03:04:14;23.80;;;17.30;;
39486;SDS011;25173;50.430;18.926;2022-10-16T03:07:15;23.80;;;17.25;;
39486;SDS011;25173;50.430;18.926;2022-10-16T03:10:16;23.42;;;16.60;;
39486;SDS011;25173;50.430;18.926;2022-10-16T03:13:17;24.30;;;16.42;;
39486;SDS011;25173;50.430;18.926;2022-10-16T03:16:20;25.95;;;16.25;;
39486;SDS011;25173;50.430;18.926;2022-10-16T03:19:21;24.33;;;16.42;;
39486;SDS011;25173;50.430;18.926;2022-10-16T03:22:21;23.77;;;16.90;;
39486;SDS011;25173;50.430;18.926;2022-10-16T03:25:22;21.50;;;15.02;;
39486;SDS011;25173;50.430;18.926;2022-10-16T03:28:23;24.38;;;15.55;;
39486;SDS011;25173;50.430;18.926;2022-10-16T03:31:23;22.67;;;15.15;;
39486;SDS011;25173;50.430;18.926;2022-10-16T03:34:24;25.67;;;17.95;;
39486;SDS011;25173;50.430;18.926;2022-10-16T03:37:25;28.02;;;17.67;;
39486;SDS011;25173;50.430;18.926;2022-10-16T03:40:26;25.92;;;16.77;;
39486;SDS011;25173;50.430;18.926;2022-10-16T03:43:27;23.80;;;16.23;;
39486;SDS011;25173;50.430;18.926;2022-10-16T03:46:27;23.35;;;15.98;;
39486;SDS011;25173;50.430;18.926;2022-10-16T03:49:28;21.55;;;15.10;;
39486;SDS011;25173;50.430;18.926;2022-10-16T03:52:28;21.00;;;15.05;;
39486;SDS011;25173;50.430;18.926;2022-10-16T03:55:29;20.75;;;16.05;;
39486;SDS011;25173;50.430;18.926;2022-10-16T03:58:30;27.20;;;17.27;;
39486;SDS011;25173;50.430;18.926;2022-10-16T04:01:30;28.65;;;18.95;;
39486;SDS011;25173;50.430;18.926;2022-10-16T04:04:31;41.03;;;24.25;;
39486;SDS011;25173;50.430;18.926;2022-10-16T04:07:31;44.20;;;26.02;;
39486;SDS011;25173;50.430;18.926;2022-10-16T04:10:32;38.97;;;25.35;;
39486;SDS011;25173;50.430;18.926;2022-10-16T04:13:32;32.10;;;19.23;;
39486;SDS011;25173;50.430;18.926;2022-10-16T04:16:33;29.60;;;18.58;;
39486;SDS011;25173;50.430;18.926;2022-10-16T04:19:34;34.55;;;21.75;;
39486;SDS011;25173;50.430;18.926;2022-10-16T04:22:34;33.90;;;22.25;;
39486;SDS011;25173;50.430;18.926;2022-10-16T04:25:35;35.47;;;22.02;;
39486;SDS011;25173;50.430;18.926;2022-10-16T04:28:35;36.65;;;21.83;;
39486;SDS011;25173;50.430;18.926;2022-10-16T04:31:36;27.90;;;18.65;;
39486;SDS011;25173;50.430;18.926;2022-10-16T04:34:38;22.02;;;16.77;;
39486;SDS011;25173;50.430;18.926;2022-10-16T04:37:39;25.35;;;17.35;;
39486;SDS011;25173;50.430;18.926;2022-10-16T04:40:41;26.73;;;17.13;;
39486;SDS011;25173;50.430;18.926;2022-10-16T04:43:42;22.33;;;17.33;;
39486;SDS011;25173;50.430;18.926;2022-10-16T04:46:43;26.17;;;17.25;;
39486;SDS011;25173;50.430;18.926;2022-10-16T04:49:44;24.95;;;18.40;;
39486;SDS011;25173;50.430;18.926;2022-10-16T04:52:45;26.90;;;17.08;;
39486;SDS011;25173;50.430;18.926;2022-10-16T04:55:45;24.20;;;16.80;;
39486;SDS011;25173;50.430;18.926;2022-10-16T04:58:46;26.23;;;18.08;;
39486;SDS011;25173;50.430;18.926;2022-10-16T05:01:47;22.85;;;17.73;;
39486;SDS011;25173;50.430;18.926;2022-10-16T05:04:48;32.05;;;18.52;;
39486;SDS011;25173;50.430;18.926;2022-10-16T05:07:48;24.60;;;17.55;;
39486;SDS011;25173;50.430;18.926;2022-10-16T05:10:49;29.42;;;21.77;;
39486;SDS011;25173;50.430;18.926;2022-10-16T05:13:50;30.63;;;21.50;;
39486;SDS011;25173;50.430;18.926;2022-10-16T05:16:51;36.83;;;22.10;;
39486;SDS011;25173;50.430;18.926;2022-10-16T05:19:52;37.78;;;23.67;;
39486;SDS011;25173;50.430;18.926;2022-10-16T05:22:52;39.13;;;24.67;;
39486;SDS011;25173;50.430;18.926;2022-10-16T05:25:53;30.48;;;21.77;;
39486;SDS011;25173;50.430;18.926;2022-10-16T05:28:55;36.88;;;24.38;;
39486;SDS011;25173;50.430;18.926;2022-10-16T05:31:56;33.50;;;23.90;;
39486;SDS011;25173;50.430;18.926;2022-10-16T05:34:56;40.30;;;25.73;;
39486;SDS011;25173;50.430;18.926;2022-10-16T05:37:59;38.78;;;26.25;;
39486;SDS011;25173;50.430;18.926;2022-10-16T05:41:00;36.38;;;24.75;;
39486;SDS011;25173;50.430;18.926;2022-10-16T05:44:04;33.10;;;23.98;;
39486;SDS011;25173;50.430;18.926;2022-10-16T05:47:06;34.53;;;24.55;;
39486;SDS011;25173;50.430;18.926;2022-10-16T05:50:07;32.92;;;21.90;;
39486;SDS011;25173;50.430;18.926;2022-10-16T05:53:07;32.10;;;22.25;;
39486;SDS011;25173;50.430;18.926;2022-10-16T05:56:09;29.88;;;20.23;;
39486;SDS011;25173;50.430;18.926;2022-10-16T05:59:11;31.70;;;19.00;;
39486;SDS011;25173;50.430;18.926;2022-10-16T06:02:12;30.90;;;19.17;;
39486;SDS011;25173;50.430;18.926;2022-10-16T06:05:13;31.70;;;19.80;;
39486;SDS011;25173;50.430;18.926;2022-10-16T06:08:13;33.72;;;19.35;;
39486;SDS011;25173;50.430;18.926;2022-10-16T06:11:16;33.83;;;21.33;;
39486;SDS011;25173;50.430;18.926;2022-10-16T06:14:18;27.73;;;18.67;;
39486;SDS011;25173;50.430;18.926;2022-10-16T06:17:19;29.20;;;19.42;;
39486;SDS011;25173;50.430;18.926;2022-10-16T06:20:19;34.67;;;19.45;;
39486;SDS011;25173;50.430;18.926;2022-10-16T06:23:20;30.38;;;19.17;;
39486;SDS011;25173;50.430;18.926;2022-10-16T06:26:21;33.20;;;18.88;;
39486;SDS011;25173;50.430;18.926;2022-10-16T06:29:23;27.83;;;18.52;;
39486;SDS011;25173;50.430;18.926;2022-10-16T06:32:24;29.88;;;19.63;;
39486;SDS011;25173;50.430;18.926;2022-10-16T06:35:25;38.88;;;21.05;;
39486;SDS011;25173;50.430;18.926;2022-10-16T06:38:25;32.90;;;22.65;;
39486;SDS011;25173;50.430;18.926;2022-10-16T06:41:26;33.40;;;21.40;;
39486;SDS011;25173;50.430;18.926;2022-10-16T06:44:26;34.28;;;22.10;;
39486;SDS011;25173;50.430;18.926;2022-10-16T06:47:27;27.10;;;19.95;;
39486;SDS011;25173;50.430;18.926;2022-10-16T06:50:27;35.22;;;20.35;;
39486;SDS011;25173;50.430;18.926;2022-10-16T06:53:29;29.95;;;18.88;;
39486;SDS011;25173;50.430;18.926;2022-10-16T06:56:32;23.92;;;16.88;;
39486;SDS011;25173;50.430;18.926;2022-10-16T06:59:33;24.85;;;18.08;;
39486;SDS011;25173;50.430;18.926;2022-10-16T07:02:34;31.80;;;19.52;;
39486;SDS011;25173;50.430;18.926;2022-10-16T07:05:41;30.92;;;18.13;;
39486;SDS011;25173;50.430;18.926;2022-10-16T07:08:43;26.83;;;16.95;;
39486;SDS011;25173;50.430;18.926;2022-10-16T07:11:45;30.50;;;19.58;;
39486;SDS011;25173;50.430;18.926;2022-10-16T07:14:45;41.47;;;23.55;;
39486;SDS011;25173;50.430;18.926;2022-10-16T07:17:46;36.67;;;22.13;;
39486;SDS011;25173;50.430;18.926;2022-10-16T07:20:47;42.30;;;20.85;;
39486;SDS011;25173;50.430;18.926;2022-10-16T07:23:51;30.02;;;19.65;;
39486;SDS011;25173;50.430;18.926;2022-10-16T07:26:53;26.38;;;16.77;;
39486;SDS011;25173;50.430;18.926;2022-10-16T07:29:53;28.38;;;18.92;;
39486;SDS011;25173;50.430;18.926;2022-10-16T07:32:54;31.85;;;18.20;;
39486;SDS011;25173;50.430;18.926;2022-10-16T07:35:54;22.50;;;15.18;;
39486;SDS011;25173;50.430;18.926;2022-10-16T07:38:55;20.00;;;13.18;;
39486;SDS011;25173;50.430;18.926;2022-10-16T07:41:55;17.75;;;13.75;;
39486;SDS011;25173;50.430;18.926;2022-10-16T07:44:56;19.77;;;13.60;;
39486;SDS011;25173;50.430;18.926;2022-10-16T07:47:57;20.08;;;13.77;;
39486;SDS011;25173;50.430;18.926;2022-10-16T07:50:58;20.63;;;15.00;;
39486;SDS011;25173;50.430;18.926;2022-10-16T07:53:59;25.77;;;15.63;;
39486;SDS011;25173;50.430;18.926;2022-10-16T07:57:00;30.67;;;19.35;;
39486;SDS011;25173;50.430;18.926;2022-10-16T08:00:01;24.20;;;15.77;;
39486;SDS011;25173;50.430;18.926;2022-10-16T08:03:01;23.42;;;15.45;;
39486;SDS011;25173;50.430;18.926;2022-10-16T08:06:02;24.35;;;16.00;;
39486;SDS011;25173;50.430;18.926;2022-10-16T08:09:04;22.50;;;13.98;;
39486;SDS011;25173;50.430;18.926;2022-10-16T08:12:05;18.15;;;12.43;;
39486;SDS011;25173;50.430;18.926;2022-10-16T08:15:06;18.35;;;12.27;;
39486;SDS011;25173;50.430;18.926;2022-10-16T08:18:09;19.33;;;12.50;;
39486;SDS011;25173;50.430;18.926;2022-10-16T08:21:14;24.30;;;14.13;;
39486;SDS011;25173;50.430;18.926;2022-10-16T08:24:17;17.92;;;13.35;;
39486;SDS011;25173;50.430;18.926;2022-10-16T08:27:17;17.92;;;12.15;;
39486;SDS011;25173;50.430;18.926;2022-10-16T08:30:18;21.98;;;13.07;;
39486;SDS011;25173;50.430;18.926;2022-10-16T08:33:20;16.92;;;11.85;;
39486;SDS011;25173;50.430;18.926;2022-10-16T08:36:20;17.83;;;11.75;;
39486;SDS011;25173;50.430;18.926;2022-10-16T08:39:21;15.23;;;9.57;;
39486;SDS011;25173;50.430;18.926;2022-10-16T08:42:27;19.50;;;11.35;;
39486;SDS011;25173;50.430;18.926;2022-10-16T08:49:14;14.77;;;10.18;;
39486;SDS011;25173;50.430;18.926;2022-10-16T08:52:16;19.02;;;10.13;;
39486;SDS011;25173;50.430;18.926;2022-10-16T08:55:29;14.00;;;10.20;;
39486;SDS011;25173;50.430;18.926;2022-10-16T08:58:34;13.77;;;9.80;;
39486;SDS011;25173;50.430;18.926;2022-10-16T09:01:44;23.02;;;12.20;;
39486;SDS011;25173;50.430;18.926;2022-10-16T09:04:48;20.40;;;12.98;;
39486;SDS011;25173;50.430;18.926;2022-10-16T09:11:09;17.63;;;10.02;;
39486;SDS011;25173;50.430;18.926;2022-10-16T09:14:32;18.42;;;13.15;;
39486;SDS011;25173;50.430;18.926;2022-10-16T09:23:45;19.30;;;13.27;;
39486;SDS011;25173;50.430;18.926;2022-10-16T09:26:47;14.82;;;10.70;;
39486;SDS011;25173;50.430;18.926;2022-10-16T09:29:48;18.45;;;10.80;;
39486;SDS011;25173;50.430;18.926;2022-10-16T09:32:50;21.55;;;13.93;;
39486;SDS011;25173;50.430;18.926;2022-10-16T09:35:53;16.80;;;12.85;;
39486;SDS011;25173;50.430;18.926;2022-10-16T09:39:06;19.33;;;12.50;;
39486;SDS011;25173;50.430;18.926;2022-10-16T09:42:09;19.58;;;11.85;;
39486;SDS011;25173;50.430;18.926;2022-10-16T09:45:21;20.48;;;11.15;;
39486;SDS011;25173;50.430;18.926;2022-10-16T09:48:25;14.50;;;10.57;;
39486;SDS011;25173;50.430;18.926;2022-10-16T09:51:43;19.90;;;11.63;;
39486;SDS011;25173;50.430;18.926;2022-10-16T09:57:51;18.83;;;12.02;;
39486;SDS011;25173;50.430;18.926;2022-10-16T10:00:53;14.18;;;11.13;;
39486;SDS011;25173;50.430;18.926;2022-10-16T10:03:55;17.55;;;12.35;;
39486;SDS011;25173;50.430;18.926;2022-10-16T10:07:01;14.02;;;10.30;;
39486;SDS011;25173;50.430;18.926;2022-10-16T10:10:03;13.48;;;10.05;;
39486;SDS011;25173;50.430;18.926;2022-10-16T10:13:14;19.05;;;11.90;;
39486;SDS011;25173;50.430;18.926;2022-10-16T10:16:24;24.65;;;15.60;;
39486;SDS011;25173;50.430;18.926;2022-10-16T10:19:26;23.73;;;13.60;;
39486;SDS011;25173;50.430;18.926;2022-10-16T10:29:38;16.58;;;11.75;;
39486;SDS011;25173;50.430;18.926;2022-10-16T10:32:52;16.55;;;12.15;;
39486;SDS011;25173;50.430;18.926;2022-10-16T10:39:28;18.52;;;11.80;;
39486;SDS011;25173;50.430;18.926;2022-10-16T10:42:39;25.55;;;12.63;;
39486;SDS011;25173;50.430;18.926;2022-10-16T10:45:58;16.37;;;10.70;;
39486;SDS011;25173;50.430;18.926;2022-10-16T10:52:48;18.17;;;10.85;;
39486;SDS011;25173;50.430;18.926;2022-10-16T11:05:52;20.67;;;12.75;;
39486;SDS011;25173;50.430;18.926;2022-10-16T11:12:29;21.80;;;11.37;;
39486;SDS011;25173;50.430;18.926;2022-10-16T11:15:35;30.90;;;19.20;;
39486;SDS011;25173;50.430;18.926;2022-10-16T11:18:46;50.03;;;37.03;;
39486;SDS011;25173;50.430;18.926;2022-10-16T11:22:01;16.77;;;11.35;;
39486;SDS011;25173;50.430;18.926;2022-10-16T11:25:29;12.52;;;9.18;;
39486;SDS011;25173;50.430;18.926;2022-10-16T11:28:34;18.17;;;11.32;;
39486;SDS011;25173;50.430;18.926;2022-10-16T11:31:41;33.38;;;21.75;;
39486;SDS011;25173;50.430;18.926;2022-10-16T11:34:51;15.25;;;11.85;;
39486;SDS011;25173;50.430;18.926;2022-10-16T11:38:00;15.75;;;10.05;;
39486;SDS011;25173;50.430;18.926;2022-10-16T11:41:35;16.90;;;8.48;;
39486;SDS011;25173;50.430;18.926;2022-10-16T11:51:14;13.75;;;10.05;;
39486;SDS011;25173;50.430;18.926;2022-10-16T11:57:28;10.35;;;8.10;;
39486;SDS011;25173;50.430;18.926;2022-10-16T12:00:40;13.90;;;10.50;;
39486;SDS011;25173;50.430;18.926;2022-10-16T12:04:12;14.25;;;8.18;;
39486;SDS011;25173;50.430;18.926;2022-10-16T12:07:21;13.18;;;10.43;;
39486;SDS011;25173;50.430;18.926;2022-10-16T12:10:28;12.52;;;8.52;;
39486;SDS011;25173;50.430;18.926;2022-10-16T12:16:32;11.65;;;9.63;;
39486;SDS011;25173;50.430;18.926;2022-10-16T12:19:33;15.32;;;10.10;;
39486;SDS011;25173;50.430;18.926;2022-10-16T12:22:34;11.43;;;8.80;;
39486;SDS011;25173;50.430;18.926;2022-10-16T12:25:39;14.65;;;10.07;;
39486;SDS011;25173;50.430;18.926;2022-10-16T12:28:46;14.38;;;8.45;;
39486;SDS011;25173;50.430;18.926;2022-10-16T12:31:48;23.48;;;12.55;;
39486;SDS011;25173;50.430;18.926;2022-10-16T12:34:50;20.00;;;12.57;;
39486;SDS011;25173;50.430;18.926;2022-10-16T12:37:51;15.90;;;10.13;;
39486;SDS011;25173;50.430;18.926;2022-10-16T12:41:08;22.10;;;12.38;;
39486;SDS011;25173;50.430;18.926;2022-10-16T12:44:24;14.32;;;9.20;;
39486;SDS011;25173;50.430;18.926;2022-10-16T12:50:31;16.13;;;11.48;;
39486;SDS011;25173;50.430;18.926;2022-10-16T12:53:37;18.60;;;12.15;;
39486;SDS011;25173;50.430;18.926;2022-10-16T12:59:53;21.30;;;12.98;;
39486;SDS011;25173;50.430;18.926;2022-10-16T13:03:17;11.13;;;9.75;;
39486;SDS011;25173;50.430;18.926;2022-10-16T13:06:45;15.82;;;10.20;;
39486;SDS011;25173;50.430;18.926;2022-10-16T13:10:02;12.40;;;9.05;;
39486;SDS011;25173;50.430;18.926;2022-10-16T13:13:32;14.23;;;8.45;;
39486;SDS011;25173;50.430;18.926;2022-10-16T13:26:46;13.57;;;9.73;;
39486;SDS011;25173;50.430;18.926;2022-10-16T13:30:09;16.48;;;10.38;;
39486;SDS011;25173;50.430;18.926;2022-10-16T13:33:20;15.75;;;10.10;;
39486;SDS011;25173;50.430;18.926;2022-10-16T13:36:30;15.98;;;10.15;;
39486;SDS011;25173;50.430;18.926;2022-10-16T13:39:35;17.63;;;10.88;;
39486;SDS011;25173;50.430;18.926;2022-10-16T13:42:36;13.45;;;8.80;;
39486;SDS011;25173;50.430;18.926;2022-10-16T13:45:36;11.80;;;8.65;;
39486;SDS011;25173;50.430;18.926;2022-10-16T13:48:37;11.95;;;8.48;;
39486;SDS011;25173;50.430;18.926;2022-10-16T13:51:38;12.48;;;8.77;;
39486;SDS011;25173;50.430;18.926;2022-10-16T13:54:38;14.18;;;9.75;;
39486;SDS011;25173;50.430;18.926;2022-10-16T13:57:39;19.30;;;11.40;;
39486;SDS011;25173;50.430;18.926;2022-10-16T14:00:41;19.30;;;12.55;;
39486;SDS011;25173;50.430;18.926;2022-10-16T14:04:04;18.77;;;12.93;;
39486;SDS011;25173;50.430;18.926;2022-10-16T14:07:19;12.85;;;9.95;;
39486;SDS011;25173;50.430;18.926;2022-10-16T14:10:28;18.27;;;9.77;;
39486;SDS011;25173;50.430;18.926;2022-10-16T14:13:36;17.55;;;10.00;;
39486;SDS011;25173;50.430;18.926;2022-10-16T14:16:40;13.38;;;8.40;;
39486;SDS011;25173;50.430;18.926;2022-10-16T14:19:45;12.48;;;8.40;;
39486;SDS011;25173;50.430;18.926;2022-10-16T14:22:47;11.02;;;8.80;;
39486;SDS011;25173;50.430;18.926;2022-10-16T14:29:13;15.30;;;9.88;;
39486;SDS011;25173;50.430;18.926;2022-10-16T14:32:23;12.93;;;11.52;;
39486;SDS011;25173;50.430;18.926;2022-10-16T14:35:25;12.63;;;10.00;;
39486;SDS011;25173;50.430;18.926;2022-10-16T14:38:31;14.88;;;9.43;;
39486;SDS011;25173;50.430;18.926;2022-10-16T14:41:35;14.68;;;9.60;;
39486;SDS011;25173;50.430;18.926;2022-10-16T14:44:43;12.10;;;9.23;;
39486;SDS011;25173;50.430;18.926;2022-10-16T14:47:47;14.20;;;9.95;;
39486;SDS011;25173;50.430;18.926;2022-10-16T14:50:53;17.80;;;11.80;;
39486;SDS011;25173;50.430;18.926;2022-10-16T14:53:54;15.57;;;11.40;;
39486;SDS011;25173;50.430;18.926;2022-10-16T14:56:58;13.15;;;9.98;;
39486;SDS011;25173;50.430;18.926;2022-10-16T14:59:59;15.13;;;10.00;;
39486;SDS011;25173;50.430;18.926;2022-10-16T15:03:00;16.58;;;11.07;;
39486;SDS011;25173;50.430;18.926;2022-10-16T15:06:00;18.20;;;12.02;;
39486;SDS011;25173;50.430;18.926;2022-10-16T15:09:01;20.45;;;12.82;;
39486;SDS011;25173;50.430;18.926;2022-10-16T15:12:01;18.17;;;12.68;;
39486;SDS011;25173;50.430;18.926;2022-10-16T15:15:09;19.15;;;12.93;;
39486;SDS011;25173;50.430;18.926;2022-10-16T15:18:21;22.50;;;10.90;;
39486;SDS011;25173;50.430;18.926;2022-10-16T15:21:29;18.27;;;13.00;;
39486;SDS011;25173;50.430;18.926;2022-10-16T15:24:31;13.90;;;10.25;;
39486;SDS011;25173;50.430;18.926;2022-10-16T15:27:32;14.43;;;9.55;;
39486;SDS011;25173;50.430;18.926;2022-10-16T15:30:40;20.33;;;12.80;;
39486;SDS011;25173;50.430;18.926;2022-10-16T15:33:41;17.80;;;13.68;;
39486;SDS011;25173;50.430;18.926;2022-10-16T15:36:42;22.33;;;15.52;;
39486;SDS011;25173;50.430;18.926;2022-10-16T15:39:43;28.95;;;21.92;;
39486;SDS011;25173;50.430;18.926;2022-10-16T15:42:43;34.67;;;19.83;;
39486;SDS011;25173;50.430;18.926;2022-10-16T15:45:44;22.63;;;16.20;;
39486;SDS011;25173;50.430;18.926;2022-10-16T15:49:00;25.83;;;17.20;;
39486;SDS011;25173;50.430;18.926;2022-10-16T15:52:01;36.60;;;24.00;;
39486;SDS011;25173;50.430;18.926;2022-10-16T15:55:01;76.78;;;59.33;;
39486;SDS011;25173;50.430;18.926;2022-10-16T15:58:02;76.13;;;65.03;;
39486;SDS011;25173;50.430;18.926;2022-10-16T16:01:03;45.13;;;36.00;;
39486;SDS011;25173;50.430;18.926;2022-10-16T16:04:04;33.63;;;24.35;;
39486;SDS011;25173;50.430;18.926;2022-10-16T16:07:05;21.23;;;15.48;;
39486;SDS011;25173;50.430;18.926;2022-10-16T16:10:09;24.15;;;16.30;;
39486;SDS011;25173;50.430;18.926;2022-10-16T16:13:10;23.25;;;16.70;;
39486;SDS011;25173;50.430;18.926;2022-10-16T16:16:12;20.00;;;15.18;;
39486;SDS011;25173;50.430;18.926;2022-10-16T16:19:15;22.55;;;14.73;;
39486;SDS011;25173;50.430;18.926;2022-10-16T16:22:18;30.48;;;19.25;;
39486;SDS011;25173;50.430;18.926;2022-10-16T16:25:18;31.42;;;21.60;;
39486;SDS011;25173;50.430;18.926;2022-10-16T16:28:19;29.83;;;20.52;;
39486;SDS011;25173;50.430;18.926;2022-10-16T16:31:20;42.13;;;24.80;;
39486;SDS011;25173;50.430;18.926;2022-10-16T16:34:25;64.97;;;35.40;;
39486;SDS011;25173;50.430;18.926;2022-10-16T16:37:26;44.97;;;27.13;;
39486;SDS011;25173;50.430;18.926;2022-10-16T16:40:27;52.60;;;36.88;;
39486;SDS011;25173;50.430;18.926;2022-10-16T16:43:27;40.65;;;26.83;;
39486;SDS011;25173;50.430;18.926;2022-10-16T16:46:28;33.78;;;23.88;;
39486;SDS011;25173;50.430;18.926;2022-10-16T16:49:29;30.83;;;19.17;;
39486;SDS011;25173;50.430;18.926;2022-10-16T16:52:29;31.00;;;21.63;;
39486;SDS011;25173;50.430;18.926;2022-10-16T16:55:30;25.70;;;19.10;;
39486;SDS011;25173;50.430;18.926;2022-10-16T16:58:33;24.73;;;17.35;;
39486;SDS011;25173;50.430;18.926;2022-10-16T17:01:34;23.45;;;16.90;;
39486;SDS011;25173;50.430;18.926;2022-10-16T17:04:34;25.83;;;19.42;;
39486;SDS011;25173;50.430;18.926;2022-10-16T17:07:35;25.45;;;19.42;;
39486;SDS011;25173;50.430;18.926;2022-10-16T17:10:42;25.60;;;18.67;;
39486;SDS011;25173;50.430;18.926;2022-10-16T17:13:43;34.80;;;24.38;;
39486;SDS011;25173;50.430;18.926;2022-10-16T17:16:44;36.20;;;27.90;;
39486;SDS011;25173;50.430;18.926;2022-10-16T17:19:45;36.67;;;29.98;;
39486;SDS011;25173;50.430;18.926;2022-10-16T17:22:46;35.20;;;27.00;;
39486;SDS011;25173;50.430;18.926;2022-10-16T17:25:46;37.33;;;23.35;;
39486;SDS011;25173;50.430;18.926;2022-10-16T17:28:50;39.88;;;26.20;;
39486;SDS011;25173;50.430;18.926;2022-10-16T17:31:55;50.20;;;32.80;;
39486;SDS011;25173;50.430;18.926;2022-10-16T17:34:56;43.30;;;28.48;;
39486;SDS011;25173;50.430;18.926;2022-10-16T17:37:56;43.45;;;29.98;;
39486;SDS011;25173;50.430;18.926;2022-10-16T17:40:57;41.55;;;33.63;;
39486;SDS011;25173;50.430;18.926;2022-10-16T17:43:58;38.08;;;30.52;;
39486;SDS011;25173;50.430;18.926;2022-10-16T17:47:00;27.02;;;20.25;;
39486;SDS011;25173;50.430;18.926;2022-10-16T17:50:02;37.95;;;26.63;;
39486;SDS011;25173;50.430;18.926;2022-10-16T17:53:03;50.53;;;33.47;;
39486;SDS011;25173;50.430;18.926;2022-10-16T17:56:05;47.75;;;33.05;;
39486;SDS011;25173;50.430;18.926;2022-10-16T17:59:08;55.88;;;35.92;;
39486;SDS011;25173;50.430;18.926;2022-10-16T18:02:09;45.90;;;30.30;;
39486;SDS011;25173;50.430;18.926;2022-10-16T18:05:10;50.25;;;30.85;;
39486;SDS011;25173;50.430;18.926;2022-10-16T18:08:11;55.40;;;34.17;;
39486;SDS011;25173;50.430;18.926;2022-10-16T18:11:12;41.75;;;26.40;;
39486;SDS011;25173;50.430;18.926;2022-10-16T18:14:13;42.25;;;27.77;;
39486;SDS011;25173;50.430;18.926;2022-10-16T18:17:15;45.70;;;24.00;;
39486;SDS011;25173;50.430;18.926;2022-10-16T18:20:18;36.72;;;23.30;;
39486;SDS011;25173;50.430;18.926;2022-10-16T18:23:20;33.80;;;23.85;;
39486;SDS011;25173;50.430;18.926;2022-10-16T18:26:20;29.65;;;22.75;;
39486;SDS011;25173;50.430;18.926;2022-10-16T18:29:22;36.15;;;24.30;;
39486;SDS011;25173;50.430;18.926;2022-10-16T18:32:24;45.90;;;29.02;;
39486;SDS011;25173;50.430;18.926;2022-10-16T18:35:25;51.92;;;35.20;;
39486;SDS011;25173;50.430;18.926;2022-10-16T18:38:26;34.50;;;24.85;;
39486;SDS011;25173;50.430;18.926;2022-10-16T18:41:26;42.00;;;26.95;;
39486;SDS011;25173;50.430;18.926;2022-10-16T18:44:27;41.05;;;28.30;;
39486;SDS011;25173;50.430;18.926;2022-10-16T18:47:30;42.58;;;29.80;;
39486;SDS011;25173;50.430;18.926;2022-10-16T18:50:30;43.38;;;27.67;;
39486;SDS011;25173;50.430;18.926;2022-10-16T18:53:31;46.35;;;30.88;;
39486;SDS011;25173;50.430;18.926;2022-10-16T18:56:32;41.03;;;28.45;;
39486;SDS011;25173;50.430;18.926;2022-10-16T18:59:32;41.33;;;29.05;;
39486;SDS011;25173;50.430;18.926;2022-10-16T19:02:33;48.85;;;30.95;;
39486;SDS011;25173;50.430;18.926;2022-10-16T19:05:33;57.08;;;33.03;;
39486;SDS011;25173;50.430;18.926;2022-10-16T19:08:34;42.22;;;28.63;;
39486;SDS011;25173;50.430;18.926;2022-10-16T19:11:38;45.45;;;30.15;;
39486;SDS011;25173;50.430;18.926;2022-10-16T19:14:39;46.78;;;28.40;;